createdAt,value
2022-12-12T00:00:41.705Z,7.80
2022-12-12T00:03:08.381Z,7.70
2022-12-12T00:05:35.195Z,7.73
2022-12-12T00:08:01.776Z,7.50
2022-12-12T00:10:28.611Z,6.85
2022-12-12T00:12:55.069Z,7.00
2022-12-12T00:15:21.865Z,7.95
2022-12-12T00:17:48.328Z,7.40
2022-12-12T00:20:14.853Z,7.55
2022-12-12T00:22:41.412Z,7.72
2022-12-12T00:25:08.113Z,7.20
2022-12-12T00:27:34.625Z,8.07
2022-12-12T00:30:01.148Z,7.40
2022-12-12T00:32:27.653Z,7.50
2022-12-12T00:34:54.084Z,7.35
2022-12-12T00:37:20.583Z,7.50
2022-12-12T00:39:47.082Z,7.90
2022-12-12T00:42:13.996Z,7.73
2022-12-12T00:44:40.896Z,7.93
2022-12-12T00:47:07.636Z,7.75
2022-12-12T00:49:34.229Z,6.35
2022-12-12T00:52:00.728Z,7.30
2022-12-12T00:54:27.240Z,8.30
2022-12-12T00:56:53.812Z,7.88
2022-12-12T00:59:20.290Z,7.30
2022-12-12T01:01:47.281Z,7.65
2022-12-12T01:04:13.865Z,8.10
2022-12-12T01:06:40.589Z,7.83
2022-12-12T01:09:07.121Z,7.70
2022-12-12T01:11:33.614Z,7.20
2022-12-12T01:14:00.262Z,7.03
2022-12-12T01:16:26.886Z,7.70
2022-12-12T01:18:53.468Z,8.33
2022-12-12T01:21:20.425Z,7.63
2022-12-12T01:23:47.786Z,7.93
2022-12-12T01:26:20.666Z,7.78
2022-12-12T01:28:47.885Z,7.63
2022-12-12T01:31:15.357Z,7.90
2022-12-12T01:33:46.113Z,8.63
2022-12-12T01:36:22.730Z,8.07
2022-12-12T01:38:52.976Z,7.55
2022-12-12T01:41:20.064Z,8.07
2022-12-12T01:43:46.687Z,8.63
2022-12-12T01:46:21.850Z,8.20
2022-12-12T01:48:56.639Z,7.05
2022-12-12T01:51:26.714Z,7.82
2022-12-12T01:54:00.616Z,8.35
2022-12-12T01:56:27.232Z,7.87
2022-12-12T01:58:55.581Z,7.95
2022-12-12T02:01:23.255Z,7.95
2022-12-12T02:03:50.313Z,8.27
2022-12-12T02:06:22.421Z,7.57
2022-12-12T02:08:51.769Z,8.03
2022-12-12T02:11:18.307Z,8.50
2022-12-12T02:13:45.799Z,7.50
2022-12-12T02:16:42.089Z,7.85
2022-12-12T02:19:23.840Z,7.68
2022-12-12T02:21:57.218Z,7.40
2022-12-12T02:24:37.884Z,8.25
2022-12-12T02:27:29.261Z,7.93
2022-12-12T02:30:11.052Z,7.35
2022-12-12T02:33:09.907Z,7.85
2022-12-12T02:36:11.685Z,7.60
2022-12-12T02:39:02.788Z,7.30
2022-12-12T02:41:39.116Z,8.45
2022-12-12T02:44:11.261Z,7.65
2022-12-12T02:46:52.600Z,7.50
2022-12-12T02:49:34.875Z,7.43
2022-12-12T02:52:02.014Z,7.30
2022-12-12T02:54:28.560Z,9.27
2022-12-12T02:56:57.868Z,8.38
2022-12-12T02:59:28.001Z,8.27
2022-12-12T03:02:19.822Z,8.70
2022-12-12T03:05:19.776Z,7.22
2022-12-12T03:08:23.203Z,7.70
2022-12-12T03:11:03.712Z,7.75
2022-12-12T03:13:54.517Z,8.57
2022-12-12T03:16:32.708Z,7.43
2022-12-12T03:18:59.313Z,7.25
2022-12-12T03:21:44.437Z,8.10
2022-12-12T03:24:34.789Z,8.27
2022-12-12T03:27:16.309Z,7.65
2022-12-12T03:29:59.705Z,7.47
2022-12-12T03:32:33.479Z,8.07
2022-12-12T03:35:07.140Z,8.35
2022-12-12T03:37:37.596Z,7.97
2022-12-12T03:40:15.508Z,8.05
2022-12-12T03:42:54.155Z,7.33
2022-12-12T03:45:44.461Z,8.20
2022-12-12T03:49:00.394Z,7.63
2022-12-12T03:51:29.988Z,7.50
2022-12-12T03:54:33.797Z,7.55
2022-12-12T03:57:08.932Z,8.13
2022-12-12T03:59:53.338Z,7.57
2022-12-12T04:02:27.919Z,7.47
2022-12-12T04:05:11.181Z,7.25
2022-12-12T04:07:49.593Z,7.85
2022-12-12T04:10:34.879Z,7.43
2022-12-12T04:13:21.343Z,7.47
2022-12-12T04:15:52.612Z,8.18
2022-12-12T04:18:19.028Z,7.95
2022-12-12T04:21:11.778Z,7.55
2022-12-12T04:23:51.701Z,7.33
2022-12-12T04:26:41.647Z,7.65
2022-12-12T04:29:24.324Z,6.93
2022-12-12T04:32:12.608Z,6.97
2022-12-12T04:35:13.252Z,7.30
2022-12-12T04:37:45.250Z,6.40
2022-12-12T04:40:18.315Z,7.80
2022-12-12T04:42:50.939Z,7.57
2022-12-12T04:45:21.803Z,7.80
2022-12-12T04:47:51.248Z,7.45
2022-12-12T04:50:20.968Z,7.63
2022-12-12T04:52:49.420Z,6.82
2022-12-12T04:55:25.339Z,7.43
2022-12-12T04:57:54.803Z,7.88
2022-12-12T05:00:23.179Z,7.90
2022-12-12T05:03:17.825Z,7.80
2022-12-12T05:06:19.686Z,6.45
2022-12-12T05:08:48.834Z,7.03
2022-12-12T05:11:18.462Z,6.80
2022-12-12T05:13:45.518Z,6.85
2022-12-12T05:16:18.984Z,7.33
2022-12-12T05:18:46.300Z,6.35
2022-12-12T05:21:13.160Z,7.57
2022-12-12T05:23:39.668Z,6.82
2022-12-12T05:26:08.293Z,7.80
2022-12-12T05:28:34.783Z,6.73
2022-12-12T05:31:01.351Z,6.97
2022-12-12T05:33:28.036Z,6.97
2022-12-12T05:35:54.516Z,6.90
2022-12-12T05:38:21.136Z,7.00
2022-12-12T05:40:48.284Z,7.47
2022-12-12T05:43:14.808Z,6.53
2022-12-12T05:45:41.442Z,7.22
2022-12-12T05:48:07.985Z,7.15
2022-12-12T05:50:34.653Z,7.38
2022-12-12T05:53:01.140Z,6.53
2022-12-12T05:55:27.649Z,7.20
2022-12-12T05:57:54.163Z,6.68
2022-12-12T06:00:21.076Z,7.10
2022-12-12T06:02:47.602Z,6.88
2022-12-12T06:05:14.783Z,7.63
2022-12-12T06:07:41.621Z,6.93
2022-12-12T06:10:08.818Z,7.70
2022-12-12T06:12:35.325Z,6.72
2022-12-12T06:15:01.869Z,7.45
2022-12-12T06:17:32.925Z,7.87
2022-12-12T06:19:59.881Z,7.05
2022-12-12T06:22:26.519Z,7.15
2022-12-12T06:24:53.116Z,7.78
2022-12-12T06:27:19.806Z,6.75
2022-12-12T06:29:46.423Z,7.03
2022-12-12T06:32:13.003Z,7.30
2022-12-12T06:34:39.697Z,7.20
2022-12-12T06:37:07.474Z,6.20
2022-12-12T06:39:34.009Z,7.68
2022-12-12T06:42:00.660Z,6.67
2022-12-12T06:44:27.160Z,6.93
2022-12-12T06:46:53.716Z,6.78
2022-12-12T06:49:20.241Z,6.22
2022-12-12T06:51:48.717Z,6.28
2022-12-12T06:54:17.806Z,6.37
2022-12-12T06:56:48.212Z,7.15
2022-12-12T06:59:16.425Z,6.95
2022-12-12T07:01:43.112Z,6.75
2022-12-12T07:04:11.666Z,6.65
2022-12-12T07:06:38.201Z,6.20
2022-12-12T07:09:05.096Z,7.15
2022-12-12T07:11:31.554Z,5.97
2022-12-12T07:13:58.467Z,6.38
2022-12-12T07:16:25.498Z,7.10
2022-12-12T07:18:52.165Z,6.97
2022-12-12T07:21:20.339Z,7.28
2022-12-12T07:23:46.963Z,7.05
2022-12-12T07:26:16.267Z,7.30
2022-12-12T07:28:43.064Z,6.78
2022-12-12T07:31:13.032Z,7.90
2022-12-12T07:33:44.205Z,7.60
2022-12-12T07:36:12.256Z,7.03
2022-12-12T07:38:39.636Z,6.97
2022-12-12T07:41:15.853Z,6.75
2022-12-12T07:43:45.034Z,6.20
2022-12-12T07:46:15.932Z,6.78
2022-12-12T07:48:42.699Z,6.70
2022-12-12T07:51:09.536Z,6.22
2022-12-12T07:53:36.208Z,8.35
2022-12-12T07:56:06.463Z,7.57
2022-12-12T07:58:33.593Z,6.75
2022-12-12T08:01:00.263Z,7.45
2022-12-12T08:03:26.946Z,7.85
2022-12-12T08:05:53.449Z,7.90
2022-12-12T08:08:19.984Z,8.00
2022-12-12T08:10:46.467Z,8.13
2022-12-12T08:13:13.008Z,7.65
2022-12-12T08:15:39.568Z,8.07
2022-12-12T08:18:06.085Z,7.82
2022-12-12T08:20:32.675Z,8.30
2022-12-12T08:22:59.849Z,8.02
2022-12-12T08:25:26.365Z,8.20
2022-12-12T08:27:52.782Z,7.20
2022-12-12T08:30:19.576Z,8.75
2022-12-12T08:32:46.078Z,8.90
2022-12-12T08:35:12.808Z,7.93
2022-12-12T08:37:39.640Z,7.75
2022-12-12T08:40:06.676Z,10.30
2022-12-12T08:42:33.205Z,9.63
2022-12-12T08:44:59.666Z,9.50
2022-12-12T08:47:26.259Z,9.40
2022-12-12T08:49:52.741Z,8.88
2022-12-12T08:52:19.413Z,7.95
2022-12-12T08:54:45.867Z,9.57
2022-12-12T08:57:12.345Z,7.93
2022-12-12T08:59:39.156Z,8.40
2022-12-12T09:02:06.116Z,8.25
2022-12-12T09:04:34.694Z,8.57
2022-12-12T09:07:06.638Z,9.68
2022-12-12T09:09:34.912Z,8.13
2022-12-12T09:12:01.633Z,8.60
2022-12-12T09:14:28.087Z,8.85
2022-12-12T09:16:54.623Z,9.57
2022-12-12T09:19:21.216Z,10.05
2022-12-12T09:21:47.726Z,9.77
2022-12-12T09:24:14.190Z,9.48
2022-12-12T09:26:40.690Z,9.10
2022-12-12T09:29:07.260Z,8.30
2022-12-12T09:31:33.827Z,8.93
2022-12-12T09:34:00.513Z,10.13
2022-12-12T09:36:27.221Z,9.55
2022-12-12T09:38:53.897Z,8.90
2022-12-12T09:41:30.614Z,9.93
2022-12-12T09:44:06.371Z,9.25
2022-12-12T09:46:41.509Z,9.60
2022-12-12T09:49:14.064Z,9.52
2022-12-12T09:51:44.458Z,9.13
2022-12-12T09:54:16.751Z,8.63
2022-12-12T09:57:11.254Z,10.18
2022-12-12T09:59:41.285Z,9.53
2022-12-12T10:02:49.187Z,9.00
2022-12-12T10:05:42.052Z,9.43
2022-12-12T10:08:34.523Z,9.18
2022-12-12T10:11:27.753Z,7.90
2022-12-12T10:13:56.729Z,8.07
2022-12-12T10:16:23.289Z,9.20
2022-12-12T10:18:53.082Z,8.40
2022-12-12T10:21:28.005Z,8.35
2022-12-12T10:24:33.167Z,7.60
2022-12-12T10:27:08.545Z,7.83
2022-12-12T10:29:41.117Z,8.48
2022-12-12T10:32:33.442Z,8.55
2022-12-12T10:35:18.884Z,7.40
2022-12-12T10:38:04.591Z,7.05
2022-12-12T10:40:38.948Z,7.93
2022-12-12T10:43:31.086Z,8.18
2022-12-12T10:46:09.696Z,8.27
2022-12-12T10:48:38.690Z,8.23
2022-12-12T10:51:12.038Z,7.63
2022-12-12T10:53:41.174Z,7.70
2022-12-12T10:56:38.485Z,7.93
2022-12-12T10:59:05.220Z,8.52
2022-12-12T11:04:22.598Z,7.38
2022-12-12T11:06:52.167Z,8.20
2022-12-12T11:09:25.237Z,7.28
2022-12-12T11:12:13.374Z,8.18
2022-12-12T11:14:51.743Z,7.25
2022-12-12T11:17:33.272Z,7.63
2022-12-12T11:20:01.736Z,7.13
2022-12-12T11:22:32.039Z,8.27
2022-12-12T11:24:58.883Z,7.60
2022-12-12T11:27:34.796Z,8.55
2022-12-12T11:30:22.587Z,7.38
2022-12-12T11:32:52.601Z,7.67
2022-12-12T11:35:36.163Z,7.93
2022-12-12T11:38:06.802Z,8.10
2022-12-12T11:40:35.776Z,8.13
2022-12-12T11:43:24.192Z,8.45
2022-12-12T11:46:18.494Z,7.90
2022-12-12T11:48:51.241Z,8.52
2022-12-12T11:51:34.858Z,9.00
2022-12-12T11:54:03.904Z,8.02
2022-12-12T11:56:42.616Z,9.25
2022-12-12T11:59:18.061Z,10.10
2022-12-12T12:01:54.671Z,7.75
2022-12-12T12:04:58.173Z,8.57
2022-12-12T12:07:46.281Z,8.27
2022-12-12T12:10:38.753Z,8.00
2022-12-12T12:13:35.876Z,8.50
2022-12-12T12:16:28.878Z,8.18
2022-12-12T12:19:15.788Z,8.32
2022-12-12T12:22:06.972Z,7.88
2022-12-12T12:24:50.392Z,7.65
2022-12-12T12:27:43.076Z,8.60
2022-12-12T12:30:25.799Z,7.30
2022-12-12T12:33:16.625Z,7.53
2022-12-12T12:35:56.412Z,7.38
2022-12-12T12:38:38.532Z,7.35
2022-12-12T12:41:14.427Z,7.37
2022-12-12T12:44:05.785Z,6.95
2022-12-12T12:46:57.246Z,6.50
2022-12-12T12:49:31.568Z,6.70
2022-12-12T12:52:07.792Z,7.35
2022-12-12T12:54:39.614Z,7.63
2022-12-12T12:57:10.245Z,7.47
2022-12-12T12:59:40.928Z,6.30
2022-12-12T13:02:27.172Z,7.75
2022-12-12T13:05:07.175Z,7.03
2022-12-12T13:07:42.930Z,7.57
2022-12-12T13:10:21.145Z,6.72
2022-12-12T13:12:54.053Z,6.82
2022-12-12T13:15:50.901Z,7.00
2022-12-12T13:18:17.909Z,7.55
2022-12-12T13:20:51.212Z,6.10
2022-12-12T13:23:36.286Z,6.53
2022-12-12T13:26:17.498Z,6.82
2022-12-12T13:28:50.902Z,6.60
2022-12-12T13:31:20.512Z,7.18
2022-12-12T13:33:57.168Z,6.83
2022-12-12T13:36:36.277Z,6.70
2022-12-12T13:39:05.534Z,6.60
2022-12-12T13:42:08.484Z,6.38
2022-12-12T13:44:47.262Z,6.25
2022-12-12T13:47:22.756Z,7.07
2022-12-12T13:49:53.398Z,6.28
2022-12-12T13:52:42.253Z,6.50
2022-12-12T13:55:11.492Z,6.63
2022-12-12T13:58:05.759Z,6.53
2022-12-12T14:00:39.812Z,5.80
2022-12-12T14:03:12.561Z,6.15
2022-12-12T14:05:43.442Z,6.68
2022-12-12T14:08:09.938Z,6.65
2022-12-12T14:10:43.542Z,5.90
2022-12-12T14:13:22.309Z,5.93
2022-12-12T14:15:48.790Z,5.88
2022-12-12T14:18:24.735Z,5.93
2022-12-12T14:21:02.576Z,6.00
2022-12-12T14:23:32.252Z,6.05
2022-12-12T14:26:02.568Z,6.43
2022-12-12T14:28:34.480Z,6.38
2022-12-12T14:31:35.177Z,6.05
2022-12-12T14:34:39.561Z,5.25
2022-12-12T14:37:24.636Z,6.60
2022-12-12T14:40:09.612Z,6.47
2022-12-12T14:43:19.081Z,6.22
2022-12-12T14:45:37.897Z,7.20
2022-12-12T14:48:18.683Z,6.03
2022-12-12T14:51:06.919Z,6.03
2022-12-12T14:53:36.476Z,6.00
2022-12-12T14:56:13.098Z,6.13
2022-12-12T14:59:02.913Z,5.95
2022-12-12T15:01:37.926Z,7.15
2022-12-12T15:04:08.443Z,6.45
2022-12-12T15:06:37.032Z,6.90
2022-12-12T15:09:14.804Z,6.85
2022-12-12T15:11:41.770Z,7.68
2022-12-12T15:14:34.248Z,6.00
2022-12-12T15:17:09.221Z,5.80
2022-12-12T15:19:46.273Z,5.80
2022-12-12T15:22:31.306Z,5.53
2022-12-12T15:25:01.100Z,5.50
2022-12-12T15:27:47.053Z,6.22
2022-12-12T15:30:19.045Z,6.00
2022-12-12T15:32:48.138Z,5.30
2022-12-12T15:35:21.234Z,6.32
2022-12-12T15:38:02.793Z,5.82
2022-12-12T15:40:31.843Z,6.38
2022-12-12T15:43:02.344Z,5.55
2022-12-12T15:45:35.644Z,5.30
2022-12-12T15:48:03.751Z,5.53
2022-12-12T15:50:50.635Z,5.22
2022-12-12T15:53:41.162Z,5.75
2022-12-12T15:56:13.675Z,4.97
2022-12-12T15:58:52.084Z,5.43
2022-12-12T16:01:24.062Z,5.00
2022-12-12T16:04:13.936Z,6.13
2022-12-12T16:06:46.266Z,6.30
2022-12-12T16:09:23.012Z,6.20
2022-12-12T16:11:53.409Z,6.20
2022-12-12T16:14:42.949Z,5.93
2022-12-12T16:17:20.270Z,5.97
2022-12-12T16:20:02.515Z,5.50
2022-12-12T16:22:33.737Z,5.85
2022-12-12T16:25:18.710Z,5.40
2022-12-12T16:27:46.866Z,5.03
2022-12-12T16:30:15.203Z,8.70
2022-12-12T16:32:42.824Z,10.23
2022-12-12T16:35:21.587Z,8.73
2022-12-12T16:37:49.152Z,7.57
2022-12-12T16:40:17.674Z,8.30
2022-12-12T16:42:48.835Z,8.60
2022-12-12T16:45:15.660Z,6.72
2022-12-12T16:47:42.236Z,6.63
2022-12-12T16:50:12.702Z,7.57
2022-12-12T16:52:39.461Z,7.03
2022-12-12T16:55:16.399Z,7.53
2022-12-12T16:57:42.850Z,6.82
2022-12-12T17:00:10.656Z,7.10
2022-12-12T17:02:37.896Z,7.10
2022-12-12T17:05:04.870Z,6.72
2022-12-12T17:07:31.417Z,7.38
2022-12-12T17:09:57.900Z,8.48
2022-12-12T17:12:24.407Z,9.38
2022-12-12T17:14:50.941Z,9.97
2022-12-12T17:17:17.524Z,9.55
2022-12-12T17:19:44.036Z,9.40
2022-12-12T17:22:10.561Z,7.97
2022-12-12T17:24:37.115Z,7.28
2022-12-12T17:27:03.731Z,6.00
2022-12-12T17:29:30.210Z,7.10
2022-12-12T17:31:56.775Z,6.80
2022-12-12T17:34:23.429Z,7.45
2022-12-12T17:36:49.902Z,7.65
2022-12-12T17:39:16.498Z,6.60
2022-12-12T17:41:42.957Z,5.80
2022-12-12T17:44:09.387Z,5.50
2022-12-12T17:46:35.893Z,6.40
2022-12-12T17:49:03.205Z,8.02
2022-12-12T17:51:29.809Z,9.43
2022-12-12T17:53:56.413Z,9.77
2022-12-12T17:56:24.586Z,10.93
2022-12-12T17:58:51.593Z,10.77
2022-12-12T18:01:24.250Z,11.52
2022-12-12T18:03:51.700Z,11.97
2022-12-12T18:06:20.381Z,11.00
2022-12-12T18:08:47.621Z,11.30
2022-12-12T18:11:17.094Z,9.55
2022-12-12T18:13:44.829Z,10.43
2022-12-12T18:16:13.506Z,9.17
2022-12-12T18:18:40.791Z,10.18
2022-12-12T18:21:23.530Z,10.90
2022-12-12T18:24:01.156Z,12.30
2022-12-12T18:26:28.088Z,12.50
2022-12-12T18:29:00.248Z,12.07
2022-12-12T18:31:27.850Z,11.23
2022-12-12T18:33:54.897Z,11.75
2022-12-12T18:36:26.822Z,9.85
2022-12-12T18:38:55.469Z,9.52
2022-12-12T18:41:24.303Z,9.77
2022-12-12T18:43:50.941Z,9.45
2022-12-12T18:46:20.368Z,9.30
2022-12-12T18:48:48.233Z,9.13
2022-12-12T18:51:22.401Z,9.55
2022-12-12T18:53:49.828Z,9.83
2022-12-12T18:56:20.406Z,10.10
2022-12-12T18:58:47.011Z,8.65
2022-12-12T19:01:19.594Z,8.85
2022-12-12T19:03:50.122Z,8.68
2022-12-12T19:06:20.041Z,10.43
2022-12-12T19:08:46.635Z,9.95
2022-12-12T19:11:14.076Z,8.55
2022-12-12T19:13:40.883Z,9.27
2022-12-12T19:16:11.256Z,8.65
2022-12-12T19:18:38.700Z,7.33
2022-12-12T19:21:14.554Z,7.07
2022-12-12T19:23:41.884Z,8.45
2022-12-12T19:26:11.452Z,7.13
2022-12-12T19:28:38.030Z,10.80
2022-12-12T19:31:13.276Z,11.40
2022-12-12T19:33:40.169Z,11.10
2022-12-12T19:36:15.949Z,11.57
2022-12-12T19:38:43.300Z,12.00
2022-12-12T19:41:11.383Z,11.80
2022-12-12T19:43:37.962Z,10.73
2022-12-12T19:46:16.047Z,9.13
2022-12-12T19:48:43.875Z,9.20
2022-12-12T19:51:16.423Z,9.93
2022-12-12T19:53:45.144Z,14.52
2022-12-12T19:56:13.799Z,11.90
2022-12-12T19:58:41.229Z,9.73
2022-12-12T20:01:10.322Z,9.75
2022-12-12T20:03:37.460Z,8.27
2022-12-12T20:06:06.518Z,8.35
2022-12-12T20:08:34.250Z,8.90
2022-12-12T20:11:09.787Z,10.63
2022-12-12T20:13:37.224Z,11.98
2022-12-12T20:16:10.022Z,11.68
2022-12-12T20:18:37.633Z,10.20
2022-12-12T20:21:05.493Z,10.83
2022-12-12T20:23:35.408Z,9.38
2022-12-12T20:26:04.347Z,11.35
2022-12-12T20:28:31.248Z,12.45
2022-12-12T20:31:07.938Z,13.88
2022-12-12T20:33:35.107Z,12.80
2022-12-12T20:36:15.279Z,13.77
2022-12-12T20:38:42.408Z,12.77
2022-12-12T20:41:15.523Z,10.43
2022-12-12T20:43:43.094Z,9.13
2022-12-12T20:46:10.931Z,9.40
2022-12-12T20:48:38.280Z,8.68
2022-12-12T20:51:24.825Z,9.30
2022-12-12T20:53:53.568Z,7.55
2022-12-12T20:56:21.607Z,9.02
2022-12-12T20:58:48.141Z,8.53
2022-12-12T21:01:17.256Z,8.05
2022-12-12T21:03:45.253Z,7.03
2022-12-12T21:06:13.776Z,8.13
2022-12-12T21:08:41.221Z,7.65
2022-12-12T21:11:08.769Z,7.00
2022-12-12T21:13:36.297Z,7.13
2022-12-12T21:16:09.135Z,6.10
2022-12-12T21:18:36.018Z,7.00
2022-12-12T21:21:02.873Z,6.97
2022-12-12T21:23:29.725Z,6.10
2022-12-12T21:25:56.351Z,6.07
2022-12-12T21:28:22.883Z,6.35
2022-12-12T21:30:49.411Z,7.35
2022-12-12T21:33:15.937Z,6.75
2022-12-12T21:35:42.617Z,6.10
2022-12-12T21:38:09.165Z,6.50
2022-12-12T21:40:36.599Z,5.95
2022-12-12T21:43:03.158Z,6.07
2022-12-12T21:45:30.192Z,6.57
2022-12-12T21:47:56.717Z,6.60
2022-12-12T21:50:28.984Z,7.18
2022-12-12T21:53:15.836Z,7.57
2022-12-12T21:55:42.357Z,6.50
2022-12-12T21:58:09.061Z,7.28
2022-12-12T22:00:39.935Z,7.20
2022-12-12T22:03:07.140Z,6.05
2022-12-12T22:05:33.790Z,6.03
2022-12-12T22:08:00.624Z,6.40
2022-12-12T22:10:27.796Z,5.97
2022-12-12T22:12:57.077Z,5.67
2022-12-12T22:15:24.137Z,5.07
2022-12-12T22:17:50.627Z,5.13
2022-12-12T22:20:17.213Z,5.47
2022-12-12T22:22:43.676Z,6.00
2022-12-12T22:25:10.200Z,6.97
2022-12-12T22:27:36.679Z,6.68
2022-12-12T22:30:03.350Z,7.05
2022-12-12T22:32:29.968Z,7.57
2022-12-12T22:34:58.381Z,8.90
2022-12-12T22:37:24.842Z,8.03
2022-12-12T22:39:51.261Z,7.90
2022-12-12T22:42:17.766Z,7.45
2022-12-12T22:44:44.732Z,8.07
2022-12-12T22:47:11.318Z,7.43
2022-12-12T22:49:37.825Z,7.10
2022-12-12T22:52:04.545Z,7.57
2022-12-12T22:54:30.966Z,7.97
2022-12-12T22:56:57.494Z,7.32
2022-12-12T22:59:24.173Z,8.25
2022-12-12T23:01:50.660Z,6.93
2022-12-12T23:04:17.265Z,7.10
2022-12-12T23:06:44.263Z,7.13
2022-12-12T23:09:17.225Z,6.93
2022-12-12T23:11:44.782Z,6.88
2022-12-12T23:14:14.781Z,6.57
2022-12-12T23:16:42.097Z,5.55
2022-12-12T23:19:08.991Z,6.28
2022-12-12T23:21:37.292Z,7.05
2022-12-12T23:24:04.874Z,5.65
2022-12-12T23:26:32.853Z,6.20
2022-12-12T23:28:59.706Z,4.82
2022-12-12T23:31:29.326Z,5.75
2022-12-12T23:33:58.288Z,7.00
2022-12-12T23:36:25.755Z,5.80
2022-12-12T23:38:57.439Z,5.90
2022-12-12T23:41:25.111Z,6.82
2022-12-12T23:43:52.385Z,6.72
2022-12-12T23:46:29.113Z,6.32
2022-12-12T23:48:56.819Z,6.93
2022-12-12T23:51:24.324Z,6.23
2022-12-12T23:53:50.957Z,6.03
2022-12-12T23:56:17.415Z,7.40
2022-12-12T23:58:43.891Z,6.85
